sensor_id;sensor_type;location;lat;lon;timestamp;P1;durP1;ratioP1;P2;durP2;ratioP2
37645;SDS011;23489;49.600;6.138;2022-12-29T00:01:23;1.92;;;1.70;;
37645;SDS011;23489;49.600;6.138;2022-12-29T00:03:49;1.33;;;1.23;;
37645;SDS011;23489;49.600;6.138;2022-12-29T00:06:15;1.50;;;1.40;;
37645;SDS011;23489;49.600;6.138;2022-12-29T00:08:40;2.45;;;1.38;;
37645;SDS011;23489;49.600;6.138;2022-12-29T00:11:06;2.13;;;1.52;;
37645;SDS011;23489;49.600;6.138;2022-12-29T00:13:33;1.48;;;1.30;;
37645;SDS011;23489;49.600;6.138;2022-12-29T00:16:18;3.55;;;1.30;;
37645;SDS011;23489;49.600;6.138;2022-12-29T00:18:43;1.75;;;1.65;;
37645;SDS011;23489;49.600;6.138;2022-12-29T00:21:17;2.53;;;1.75;;
37645;SDS011;23489;49.600;6.138;2022-12-29T00:24:02;2.00;;;1.80;;
37645;SDS011;23489;49.600;6.138;2022-12-29T00:26:48;2.83;;;1.77;;
37645;SDS011;23489;49.600;6.138;2022-12-29T00:29:38;1.92;;;1.65;;
37645;SDS011;23489;49.600;6.138;2022-12-29T00:32:22;2.10;;;1.70;;
37645;SDS011;23489;49.600;6.138;2022-12-29T00:35:09;3.55;;;1.70;;
37645;SDS011;23489;49.600;6.138;2022-12-29T00:37:41;3.15;;;2.13;;
37645;SDS011;23489;49.600;6.138;2022-12-29T00:40:29;2.80;;;1.83;;
37645;SDS011;23489;49.600;6.138;2022-12-29T00:43:13;2.53;;;1.88;;
37645;SDS011;23489;49.600;6.138;2022-12-29T00:45:57;2.83;;;1.85;;
37645;SDS011;23489;49.600;6.138;2022-12-29T00:48:23;2.10;;;1.70;;
37645;SDS011;23489;49.600;6.138;2022-12-29T00:51:08;5.00;;;1.90;;
37645;SDS011;23489;49.600;6.138;2022-12-29T00:53:34;2.20;;;2.00;;
37645;SDS011;23489;49.600;6.138;2022-12-29T00:56:00;5.93;;;2.38;;
37645;SDS011;23489;49.600;6.138;2022-12-29T00:58:29;2.55;;;2.35;;
37645;SDS011;23489;49.600;6.138;2022-12-29T01:01:05;2.90;;;2.20;;
37645;SDS011;23489;49.600;6.138;2022-12-29T01:03:33;5.57;;;2.65;;
37645;SDS011;23489;49.600;6.138;2022-12-29T01:06:03;2.28;;;2.08;;
37645;SDS011;23489;49.600;6.138;2022-12-29T01:08:31;4.20;;;2.47;;
37645;SDS011;23489;49.600;6.138;2022-12-29T01:11:07;5.40;;;2.35;;
37645;SDS011;23489;49.600;6.138;2022-12-29T01:13:35;3.17;;;2.28;;
37645;SDS011;23489;49.600;6.138;2022-12-29T01:16:04;4.22;;;2.40;;
37645;SDS011;23489;49.600;6.138;2022-12-29T01:18:30;4.30;;;2.50;;
37645;SDS011;23489;49.600;6.138;2022-12-29T01:21:02;3.38;;;2.33;;
37645;SDS011;23489;49.600;6.138;2022-12-29T01:23:29;3.85;;;2.63;;
37645;SDS011;23489;49.600;6.138;2022-12-29T01:25:55;5.45;;;2.80;;
37645;SDS011;23489;49.600;6.138;2022-12-29T01:28:23;3.78;;;2.58;;
37645;SDS011;23489;49.600;6.138;2022-12-29T01:30:48;3.05;;;2.30;;
37645;SDS011;23489;49.600;6.138;2022-12-29T01:33:14;3.55;;;2.50;;
37645;SDS011;23489;49.600;6.138;2022-12-29T01:35:40;5.28;;;2.40;;
37645;SDS011;23489;49.600;6.138;2022-12-29T01:38:05;4.05;;;2.30;;
37645;SDS011;23489;49.600;6.138;2022-12-29T01:40:33;2.47;;;2.28;;
37645;SDS011;23489;49.600;6.138;2022-12-29T01:42:59;3.13;;;2.58;;
37645;SDS011;23489;49.600;6.138;2022-12-29T01:45:24;4.47;;;2.65;;
37645;SDS011;23489;49.600;6.138;2022-12-29T01:47:52;4.30;;;2.67;;
37645;SDS011;23489;49.600;6.138;2022-12-29T01:53:02;5.65;;;2.97;;
37645;SDS011;23489;49.600;6.138;2022-12-29T01:55:34;6.78;;;2.50;;
37645;SDS011;23489;49.600;6.138;2022-12-29T01:58:13;3.25;;;2.55;;
37645;SDS011;23489;49.600;6.138;2022-12-29T02:00:43;3.55;;;2.55;;
37645;SDS011;23489;49.600;6.138;2022-12-29T02:03:08;4.90;;;2.65;;
37645;SDS011;23489;49.600;6.138;2022-12-29T02:08:11;3.00;;;2.40;;
37645;SDS011;23489;49.600;6.138;2022-12-29T02:10:38;4.28;;;2.50;;
37645;SDS011;23489;49.600;6.138;2022-12-29T02:13:05;4.82;;;2.40;;
37645;SDS011;23489;49.600;6.138;2022-12-29T02:37:54;3.35;;;2.25;;
37645;SDS011;23489;49.600;6.138;2022-12-29T02:40:43;6.30;;;2.50;;
37645;SDS011;23489;49.600;6.138;2022-12-29T02:46:18;3.40;;;1.98;;
37645;SDS011;23489;49.600;6.138;2022-12-29T02:51:35;4.00;;;2.05;;
37645;SDS011;23489;49.600;6.138;2022-12-29T02:54:22;3.67;;;2.17;;
37645;SDS011;23489;49.600;6.138;2022-12-29T02:57:09;2.55;;;1.77;;
37645;SDS011;23489;49.600;6.138;2022-12-29T02:59:48;3.25;;;1.90;;
37645;SDS011;23489;49.600;6.138;2022-12-29T03:07:54;5.10;;;2.13;;
37645;SDS011;23489;49.600;6.138;2022-12-29T03:10:53;3.22;;;1.88;;
37645;SDS011;23489;49.600;6.138;2022-12-29T03:13:32;5.30;;;1.92;;
37645;SDS011;23489;49.600;6.138;2022-12-29T03:16:44;2.90;;;1.70;;
37645;SDS011;23489;49.600;6.138;2022-12-29T03:21:44;4.85;;;1.85;;
37645;SDS011;23489;49.600;6.138;2022-12-29T03:24:56;2.78;;;2.03;;
37645;SDS011;23489;49.600;6.138;2022-12-29T03:27:39;7.55;;;1.90;;
37645;SDS011;23489;49.600;6.138;2022-12-29T03:30:11;1.83;;;1.70;;
37645;SDS011;23489;49.600;6.138;2022-12-29T03:32:39;2.35;;;1.63;;
37645;SDS011;23489;49.600;6.138;2022-12-29T03:35:11;3.38;;;1.80;;
37645;SDS011;23489;49.600;6.138;2022-12-29T03:37:41;3.83;;;1.70;;
37645;SDS011;23489;49.600;6.138;2022-12-29T03:40:11;2.90;;;1.70;;
37645;SDS011;23489;49.600;6.138;2022-12-29T03:42:37;3.63;;;1.98;;
37645;SDS011;23489;49.600;6.138;2022-12-29T03:45:04;2.83;;;1.90;;
37645;SDS011;23489;49.600;6.138;2022-12-29T03:47:32;1.55;;;1.45;;
37645;SDS011;23489;49.600;6.138;2022-12-29T03:49:59;3.92;;;2.03;;
37645;SDS011;23489;49.600;6.138;2022-12-29T03:52:25;2.13;;;1.67;;
37645;SDS011;23489;49.600;6.138;2022-12-29T03:54:52;5.53;;;2.28;;
37645;SDS011;23489;49.600;6.138;2022-12-29T03:57:17;4.13;;;2.00;;
37645;SDS011;23489;49.600;6.138;2022-12-29T03:59:54;3.53;;;1.65;;
37645;SDS011;23489;49.600;6.138;2022-12-29T04:02:20;2.30;;;1.90;;
37645;SDS011;23489;49.600;6.138;2022-12-29T04:04:46;5.03;;;2.10;;
37645;SDS011;23489;49.600;6.138;2022-12-29T04:07:11;2.40;;;1.75;;
37645;SDS011;23489;49.600;6.138;2022-12-29T04:09:39;2.78;;;1.73;;
37645;SDS011;23489;49.600;6.138;2022-12-29T04:12:06;3.08;;;1.98;;
37645;SDS011;23489;49.600;6.138;2022-12-29T04:14:34;5.18;;;1.95;;
37645;SDS011;23489;49.600;6.138;2022-12-29T04:17:00;3.35;;;1.90;;
37645;SDS011;23489;49.600;6.138;2022-12-29T04:19:27;4.53;;;1.65;;
37645;SDS011;23489;49.600;6.138;2022-12-29T04:21:53;5.60;;;1.92;;
37645;SDS011;23489;49.600;6.138;2022-12-29T04:24:19;4.47;;;1.90;;
37645;SDS011;23489;49.600;6.138;2022-12-29T04:26:48;4.15;;;1.85;;
37645;SDS011;23489;49.600;6.138;2022-12-29T04:29:33;1.77;;;1.45;;
37645;SDS011;23489;49.600;6.138;2022-12-29T04:32:09;2.38;;;1.85;;
37645;SDS011;23489;49.600;6.138;2022-12-29T04:34:40;2.05;;;1.55;;
37645;SDS011;23489;49.600;6.138;2022-12-29T04:37:06;3.58;;;1.90;;
37645;SDS011;23489;49.600;6.138;2022-12-29T04:39:31;2.50;;;1.75;;
37645;SDS011;23489;49.600;6.138;2022-12-29T04:41:59;2.53;;;1.58;;
37645;SDS011;23489;49.600;6.138;2022-12-29T04:44:24;4.95;;;1.58;;
37645;SDS011;23489;49.600;6.138;2022-12-29T04:46:56;3.13;;;1.83;;
37645;SDS011;23489;49.600;6.138;2022-12-29T04:49:44;4.47;;;1.90;;
37645;SDS011;23489;49.600;6.138;2022-12-29T04:52:22;3.47;;;1.50;;
37645;SDS011;23489;49.600;6.138;2022-12-29T04:54:48;2.92;;;1.55;;
37645;SDS011;23489;49.600;6.138;2022-12-29T04:57:18;4.55;;;1.50;;
37645;SDS011;23489;49.600;6.138;2022-12-29T04:59:48;3.33;;;1.70;;
37645;SDS011;23489;49.600;6.138;2022-12-29T05:02:15;3.42;;;1.50;;
37645;SDS011;23489;49.600;6.138;2022-12-29T05:04:43;3.50;;;1.75;;
37645;SDS011;23489;49.600;6.138;2022-12-29T05:07:09;4.63;;;2.10;;
37645;SDS011;23489;49.600;6.138;2022-12-29T05:09:35;3.85;;;1.60;;
37645;SDS011;23489;49.600;6.138;2022-12-29T05:12:01;3.60;;;1.45;;
37645;SDS011;23489;49.600;6.138;2022-12-29T05:14:28;1.75;;;1.58;;
37645;SDS011;23489;49.600;6.138;2022-12-29T05:16:53;3.05;;;1.60;;
37645;SDS011;23489;49.600;6.138;2022-12-29T05:19:19;2.42;;;1.67;;
37645;SDS011;23489;49.600;6.138;2022-12-29T05:21:45;2.28;;;1.33;;
37645;SDS011;23489;49.600;6.138;2022-12-29T05:24:11;2.15;;;1.50;;
37645;SDS011;23489;49.600;6.138;2022-12-29T05:26:36;2.10;;;1.80;;
37645;SDS011;23489;49.600;6.138;2022-12-29T05:29:10;3.30;;;2.00;;
37645;SDS011;23489;49.600;6.138;2022-12-29T05:31:36;4.35;;;2.00;;
37645;SDS011;23489;49.600;6.138;2022-12-29T05:34:03;6.07;;;2.33;;
37645;SDS011;23489;49.600;6.138;2022-12-29T05:36:29;2.47;;;1.70;;
37645;SDS011;23489;49.600;6.138;2022-12-29T05:38:58;3.60;;;2.10;;
37645;SDS011;23489;49.600;6.138;2022-12-29T05:41:24;5.45;;;2.40;;
37645;SDS011;23489;49.600;6.138;2022-12-29T05:44:06;2.83;;;2.00;;
37645;SDS011;23489;49.600;6.138;2022-12-29T05:46:50;3.53;;;2.08;;
37645;SDS011;23489;49.600;6.138;2022-12-29T05:49:34;5.70;;;2.10;;
37645;SDS011;23489;49.600;6.138;2022-12-29T05:52:06;2.25;;;1.90;;
37645;SDS011;23489;49.600;6.138;2022-12-29T05:54:33;3.33;;;2.17;;
37645;SDS011;23489;49.600;6.138;2022-12-29T05:56:59;3.90;;;2.10;;
37645;SDS011;23489;49.600;6.138;2022-12-29T05:59:26;2.60;;;2.10;;
37645;SDS011;23489;49.600;6.138;2022-12-29T06:01:53;3.45;;;2.15;;
37645;SDS011;23489;49.600;6.138;2022-12-29T06:04:18;4.93;;;1.92;;
37645;SDS011;23489;49.600;6.138;2022-12-29T06:06:44;5.65;;;2.38;;
37645;SDS011;23489;49.600;6.138;2022-12-29T06:09:18;3.20;;;2.13;;
37645;SDS011;23489;49.600;6.138;2022-12-29T06:11:44;3.45;;;2.00;;
37645;SDS011;23489;49.600;6.138;2022-12-29T06:14:10;2.92;;;2.03;;
37645;SDS011;23489;49.600;6.138;2022-12-29T06:16:36;4.95;;;2.15;;
37645;SDS011;23489;49.600;6.138;2022-12-29T06:19:04;2.78;;;1.90;;
37645;SDS011;23489;49.600;6.138;2022-12-29T06:21:30;2.60;;;2.08;;
37645;SDS011;23489;49.600;6.138;2022-12-29T06:23:59;5.05;;;2.45;;
37645;SDS011;23489;49.600;6.138;2022-12-29T06:26:24;3.65;;;2.15;;
37645;SDS011;23489;49.600;6.138;2022-12-29T06:28:50;5.05;;;1.92;;
37645;SDS011;23489;49.600;6.138;2022-12-29T06:31:16;4.68;;;2.17;;
37645;SDS011;23489;49.600;6.138;2022-12-29T06:33:41;2.67;;;1.80;;
37645;SDS011;23489;49.600;6.138;2022-12-29T06:36:08;4.22;;;2.03;;
37645;SDS011;23489;49.600;6.138;2022-12-29T06:38:34;2.67;;;1.88;;
37645;SDS011;23489;49.600;6.138;2022-12-29T06:41:00;3.25;;;1.85;;
37645;SDS011;23489;49.600;6.138;2022-12-29T06:43:44;1.95;;;1.65;;
37645;SDS011;23489;49.600;6.138;2022-12-29T06:46:29;5.60;;;2.17;;
37645;SDS011;23489;49.600;6.138;2022-12-29T06:48:54;4.72;;;2.22;;
37645;SDS011;23489;49.600;6.138;2022-12-29T06:51:20;4.90;;;1.90;;
37645;SDS011;23489;49.600;6.138;2022-12-29T06:53:45;3.70;;;2.30;;
37645;SDS011;23489;49.600;6.138;2022-12-29T06:56:11;3.45;;;1.95;;
37645;SDS011;23489;49.600;6.138;2022-12-29T06:58:37;4.18;;;2.17;;
37645;SDS011;23489;49.600;6.138;2022-12-29T07:01:02;3.30;;;2.10;;
37645;SDS011;23489;49.600;6.138;2022-12-29T07:03:28;2.40;;;2.05;;
37645;SDS011;23489;49.600;6.138;2022-12-29T07:05:54;3.42;;;1.90;;
37645;SDS011;23489;49.600;6.138;2022-12-29T07:08:19;2.15;;;1.80;;
37645;SDS011;23489;49.600;6.138;2022-12-29T07:10:45;4.07;;;1.77;;
37645;SDS011;23489;49.600;6.138;2022-12-29T07:13:11;2.90;;;1.80;;
37645;SDS011;23489;49.600;6.138;2022-12-29T07:15:37;4.00;;;1.50;;
37645;SDS011;23489;49.600;6.138;2022-12-29T07:18:03;3.38;;;1.60;;
37645;SDS011;23489;49.600;6.138;2022-12-29T07:20:29;2.03;;;1.83;;
37645;SDS011;23489;49.600;6.138;2022-12-29T07:22:55;3.17;;;1.58;;
37645;SDS011;23489;49.600;6.138;2022-12-29T07:25:21;2.50;;;1.60;;
37645;SDS011;23489;49.600;6.138;2022-12-29T07:27:47;3.28;;;1.70;;
37645;SDS011;23489;49.600;6.138;2022-12-29T07:30:13;3.35;;;1.60;;
37645;SDS011;23489;49.600;6.138;2022-12-29T07:32:39;3.88;;;1.38;;
37645;SDS011;23489;49.600;6.138;2022-12-29T07:35:05;4.97;;;1.65;;
37645;SDS011;23489;49.600;6.138;2022-12-29T07:37:31;3.58;;;1.15;;
37645;SDS011;23489;49.600;6.138;2022-12-29T07:39:57;3.75;;;1.30;;
37645;SDS011;23489;49.600;6.138;2022-12-29T07:42:23;2.42;;;1.40;;
37645;SDS011;23489;49.600;6.138;2022-12-29T07:44:51;2.55;;;1.33;;
37645;SDS011;23489;49.600;6.138;2022-12-29T07:47:23;3.00;;;1.17;;
37645;SDS011;23489;49.600;6.138;2022-12-29T07:49:49;2.75;;;1.67;;
37645;SDS011;23489;49.600;6.138;2022-12-29T07:52:15;1.90;;;1.30;;
37645;SDS011;23489;49.600;6.138;2022-12-29T07:54:41;1.75;;;1.20;;
37645;SDS011;23489;49.600;6.138;2022-12-29T07:57:06;2.28;;;1.00;;
37645;SDS011;23489;49.600;6.138;2022-12-29T07:59:32;3.58;;;1.13;;
37645;SDS011;23489;49.600;6.138;2022-12-29T08:01:57;2.45;;;1.08;;
37645;SDS011;23489;49.600;6.138;2022-12-29T08:04:23;1.60;;;1.00;;
37645;SDS011;23489;49.600;6.138;2022-12-29T08:06:49;1.55;;;1.02;;
37645;SDS011;23489;49.600;6.138;2022-12-29T08:09:15;2.80;;;1.10;;
37645;SDS011;23489;49.600;6.138;2022-12-29T08:11:40;1.40;;;0.80;;
37645;SDS011;23489;49.600;6.138;2022-12-29T08:14:07;2.08;;;1.10;;
37645;SDS011;23489;49.600;6.138;2022-12-29T08:16:33;4.30;;;1.10;;
37645;SDS011;23489;49.600;6.138;2022-12-29T08:18:59;2.08;;;1.17;;
37645;SDS011;23489;49.600;6.138;2022-12-29T08:21:26;1.17;;;0.93;;
37645;SDS011;23489;49.600;6.138;2022-12-29T08:23:52;1.20;;;0.88;;
37645;SDS011;23489;49.600;6.138;2022-12-29T08:26:18;1.45;;;0.90;;
37645;SDS011;23489;49.600;6.138;2022-12-29T08:28:43;4.50;;;1.15;;
37645;SDS011;23489;49.600;6.138;2022-12-29T08:31:09;2.65;;;0.95;;
37645;SDS011;23489;49.600;6.138;2022-12-29T08:33:35;5.57;;;1.48;;
37645;SDS011;23489;49.600;6.138;2022-12-29T08:36:04;1.27;;;0.93;;
37645;SDS011;23489;49.600;6.138;2022-12-29T08:38:31;1.65;;;0.80;;
37645;SDS011;23489;49.600;6.138;2022-12-29T08:40:57;1.38;;;0.90;;
37645;SDS011;23489;49.600;6.138;2022-12-29T08:43:26;3.20;;;1.27;;
37645;SDS011;23489;49.600;6.138;2022-12-29T08:45:52;2.38;;;0.80;;
37645;SDS011;23489;49.600;6.138;2022-12-29T08:48:17;1.15;;;0.75;;
37645;SDS011;23489;49.600;6.138;2022-12-29T08:50:45;2.65;;;0.80;;
37645;SDS011;23489;49.600;6.138;2022-12-29T08:53:11;1.88;;;0.80;;
37645;SDS011;23489;49.600;6.138;2022-12-29T08:55:37;3.40;;;1.20;;
37645;SDS011;23489;49.600;6.138;2022-12-29T08:58:03;1.38;;;0.93;;
37645;SDS011;23489;49.600;6.138;2022-12-29T09:00:28;6.25;;;1.27;;
37645;SDS011;23489;49.600;6.138;2022-12-29T09:02:55;5.05;;;0.82;;
37645;SDS011;23489;49.600;6.138;2022-12-29T09:05:21;4.65;;;1.20;;
37645;SDS011;23489;49.600;6.138;2022-12-29T09:07:47;6.80;;;1.38;;
37645;SDS011;23489;49.600;6.138;2022-12-29T09:10:12;2.67;;;0.85;;
37645;SDS011;23489;49.600;6.138;2022-12-29T09:12:38;3.00;;;1.15;;
37645;SDS011;23489;49.600;6.138;2022-12-29T09:15:04;2.08;;;1.10;;
37645;SDS011;23489;49.600;6.138;2022-12-29T09:17:30;2.40;;;0.88;;
37645;SDS011;23489;49.600;6.138;2022-12-29T09:20:10;3.85;;;1.58;;
37645;SDS011;23489;49.600;6.138;2022-12-29T09:22:36;5.05;;;1.17;;
37645;SDS011;23489;49.600;6.138;2022-12-29T09:25:02;4.88;;;1.58;;
37645;SDS011;23489;49.600;6.138;2022-12-29T09:27:28;5.88;;;1.55;;
37645;SDS011;23489;49.600;6.138;2022-12-29T09:29:55;3.50;;;0.95;;
37645;SDS011;23489;49.600;6.138;2022-12-29T09:32:20;6.53;;;1.30;;
37645;SDS011;23489;49.600;6.138;2022-12-29T09:34:46;6.47;;;1.55;;
37645;SDS011;23489;49.600;6.138;2022-12-29T09:37:12;4.45;;;1.15;;
37645;SDS011;23489;49.600;6.138;2022-12-29T09:39:37;3.83;;;1.40;;
37645;SDS011;23489;49.600;6.138;2022-12-29T09:42:14;4.60;;;1.33;;
37645;SDS011;23489;49.600;6.138;2022-12-29T09:44:51;5.40;;;1.30;;
37645;SDS011;23489;49.600;6.138;2022-12-29T09:47:38;5.22;;;1.38;;
37645;SDS011;23489;49.600;6.138;2022-12-29T09:53:01;3.03;;;1.30;;
37645;SDS011;23489;49.600;6.138;2022-12-29T09:55:37;4.05;;;1.23;;
37645;SDS011;23489;49.600;6.138;2022-12-29T09:58:12;4.28;;;1.33;;
37645;SDS011;23489;49.600;6.138;2022-12-29T10:01:00;2.22;;;1.00;;
37645;SDS011;23489;49.600;6.138;2022-12-29T10:03:36;4.80;;;1.27;;
37645;SDS011;23489;49.600;6.138;2022-12-29T10:06:25;3.35;;;1.23;;
37645;SDS011;23489;49.600;6.138;2022-12-29T10:09:06;4.35;;;1.42;;
37645;SDS011;23489;49.600;6.138;2022-12-29T10:22:49;3.50;;;1.58;;
37645;SDS011;23489;49.600;6.138;2022-12-29T10:25:35;3.38;;;1.00;;
37645;SDS011;23489;49.600;6.138;2022-12-29T10:28:05;7.05;;;1.45;;
37645;SDS011;23489;49.600;6.138;2022-12-29T10:30:40;2.58;;;1.10;;
37645;SDS011;23489;49.600;6.138;2022-12-29T10:33:07;3.35;;;1.13;;
37645;SDS011;23489;49.600;6.138;2022-12-29T10:35:39;3.42;;;1.30;;
37645;SDS011;23489;49.600;6.138;2022-12-29T10:38:13;3.22;;;1.25;;
37645;SDS011;23489;49.600;6.138;2022-12-29T10:41:00;2.70;;;1.30;;
37645;SDS011;23489;49.600;6.138;2022-12-29T10:43:40;3.60;;;1.33;;
37645;SDS011;23489;49.600;6.138;2022-12-29T10:46:18;5.53;;;1.80;;
37645;SDS011;23489;49.600;6.138;2022-12-29T10:48:47;3.95;;;1.20;;
37645;SDS011;23489;49.600;6.138;2022-12-29T10:51:18;3.72;;;1.10;;
37645;SDS011;23489;49.600;6.138;2022-12-29T10:53:58;5.95;;;2.03;;
37645;SDS011;23489;49.600;6.138;2022-12-29T10:56:44;4.25;;;1.13;;
37645;SDS011;23489;49.600;6.138;2022-12-29T10:59:33;2.00;;;1.10;;
37645;SDS011;23489;49.600;6.138;2022-12-29T11:07:33;2.60;;;1.20;;
37645;SDS011;23489;49.600;6.138;2022-12-29T11:10:15;3.22;;;1.17;;
37645;SDS011;23489;49.600;6.138;2022-12-29T11:13:16;4.05;;;1.00;;
37645;SDS011;23489;49.600;6.138;2022-12-29T11:15:48;3.22;;;1.45;;
37645;SDS011;23489;49.600;6.138;2022-12-29T11:18:21;3.72;;;1.38;;
37645;SDS011;23489;49.600;6.138;2022-12-29T11:21:03;4.00;;;1.20;;
37645;SDS011;23489;49.600;6.138;2022-12-29T11:23:35;2.05;;;1.13;;
37645;SDS011;23489;49.600;6.138;2022-12-29T11:31:45;6.45;;;1.63;;
37645;SDS011;23489;49.600;6.138;2022-12-29T11:34:32;4.10;;;1.40;;
37645;SDS011;23489;49.600;6.138;2022-12-29T11:37:06;4.97;;;1.25;;
37645;SDS011;23489;49.600;6.138;2022-12-29T11:39:41;5.05;;;1.20;;
37645;SDS011;23489;49.600;6.138;2022-12-29T11:42:16;4.18;;;1.30;;
37645;SDS011;23489;49.600;6.138;2022-12-29T11:44:45;4.10;;;2.03;;
37645;SDS011;23489;49.600;6.138;2022-12-29T11:47:21;3.80;;;1.40;;
37645;SDS011;23489;49.600;6.138;2022-12-29T11:49:56;1.80;;;0.85;;
37645;SDS011;23489;49.600;6.138;2022-12-29T11:52:25;8.20;;;1.67;;
37645;SDS011;23489;49.600;6.138;2022-12-29T11:54:53;1.95;;;0.88;;
37645;SDS011;23489;49.600;6.138;2022-12-29T11:57:21;2.55;;;1.13;;
37645;SDS011;23489;49.600;6.138;2022-12-29T11:59:50;4.10;;;1.30;;
37645;SDS011;23489;49.600;6.138;2022-12-29T12:02:34;4.95;;;1.65;;
37645;SDS011;23489;49.600;6.138;2022-12-29T12:05:35;3.88;;;1.30;;
37645;SDS011;23489;49.600;6.138;2022-12-29T12:08:14;5.22;;;2.05;;
37645;SDS011;23489;49.600;6.138;2022-12-29T12:16:31;6.75;;;1.15;;
37645;SDS011;23489;49.600;6.138;2022-12-29T12:19:04;2.97;;;1.27;;
37645;SDS011;23489;49.600;6.138;2022-12-29T12:21:41;6.43;;;2.15;;
37645;SDS011;23489;49.600;6.138;2022-12-29T12:29:54;6.10;;;1.63;;
37645;SDS011;23489;49.600;6.138;2022-12-29T12:35:16;4.88;;;1.48;;
37645;SDS011;23489;49.600;6.138;2022-12-29T12:37:57;5.40;;;1.52;;
37645;SDS011;23489;49.600;6.138;2022-12-29T12:40:46;4.50;;;1.67;;
37645;SDS011;23489;49.600;6.138;2022-12-29T12:43:22;4.90;;;1.73;;
37645;SDS011;23489;49.600;6.138;2022-12-29T12:54:11;5.55;;;1.65;;
37645;SDS011;23489;49.600;6.138;2022-12-29T13:05:09;7.13;;;1.80;;
37645;SDS011;23489;49.600;6.138;2022-12-29T13:07:59;3.33;;;1.35;;
37645;SDS011;23489;49.600;6.138;2022-12-29T13:21:49;4.90;;;1.52;;
37645;SDS011;23489;49.600;6.138;2022-12-29T13:29:50;5.65;;;1.80;;
37645;SDS011;23489;49.600;6.138;2022-12-29T13:35:18;4.88;;;1.77;;
37645;SDS011;23489;49.600;6.138;2022-12-29T13:38:03;6.50;;;1.55;;
37645;SDS011;23489;49.600;6.138;2022-12-29T13:40:40;6.75;;;1.58;;
37645;SDS011;23489;49.600;6.138;2022-12-29T13:43:10;5.28;;;1.27;;
37645;SDS011;23489;49.600;6.138;2022-12-29T13:45:38;4.95;;;1.45;;
37645;SDS011;23489;49.600;6.138;2022-12-29T13:48:16;5.25;;;1.42;;
37645;SDS011;23489;49.600;6.138;2022-12-29T13:50:57;7.25;;;1.40;;
37645;SDS011;23489;49.600;6.138;2022-12-29T13:56:15;7.07;;;1.70;;
37645;SDS011;23489;49.600;6.138;2022-12-29T14:01:40;5.63;;;1.65;;
37645;SDS011;23489;49.600;6.138;2022-12-29T14:04:22;5.68;;;1.40;;
37645;SDS011;23489;49.600;6.138;2022-12-29T14:07:02;3.42;;;1.10;;
37645;SDS011;23489;49.600;6.138;2022-12-29T14:14:45;12.80;;;1.83;;
37645;SDS011;23489;49.600;6.138;2022-12-29T14:17:11;6.30;;;1.77;;
37645;SDS011;23489;49.600;6.138;2022-12-29T14:19:39;5.50;;;1.45;;
37645;SDS011;23489;49.600;6.138;2022-12-29T14:22:08;9.45;;;1.55;;
37645;SDS011;23489;49.600;6.138;2022-12-29T14:24:40;4.75;;;1.70;;
37645;SDS011;23489;49.600;6.138;2022-12-29T14:34:56;7.70;;;2.08;;
37645;SDS011;23489;49.600;6.138;2022-12-29T14:37:24;6.30;;;1.73;;
37645;SDS011;23489;49.600;6.138;2022-12-29T14:39:54;7.25;;;1.60;;
37645;SDS011;23489;49.600;6.138;2022-12-29T14:42:39;7.75;;;1.70;;
37645;SDS011;23489;49.600;6.138;2022-12-29T14:45:07;3.13;;;1.83;;
37645;SDS011;23489;49.600;6.138;2022-12-29T14:47:45;5.45;;;2.00;;
37645;SDS011;23489;49.600;6.138;2022-12-29T14:50:14;7.82;;;1.70;;
37645;SDS011;23489;49.600;6.138;2022-12-29T14:53:00;7.45;;;1.90;;
37645;SDS011;23489;49.600;6.138;2022-12-29T14:55:31;8.10;;;1.90;;
37645;SDS011;23489;49.600;6.138;2022-12-29T14:58:19;6.70;;;1.73;;
37645;SDS011;23489;49.600;6.138;2022-12-29T15:00:46;5.10;;;1.40;;
37645;SDS011;23489;49.600;6.138;2022-12-29T15:06:18;6.55;;;1.85;;
37645;SDS011;23489;49.600;6.138;2022-12-29T15:11:50;7.20;;;1.52;;
37645;SDS011;23489;49.600;6.138;2022-12-29T15:19:56;6.78;;;2.10;;
37645;SDS011;23489;49.600;6.138;2022-12-29T15:22:23;4.85;;;1.63;;
37645;SDS011;23489;49.600;6.138;2022-12-29T15:24:50;7.20;;;2.20;;
37645;SDS011;23489;49.600;6.138;2022-12-29T15:27:24;11.27;;;2.10;;
37645;SDS011;23489;49.600;6.138;2022-12-29T15:29:58;7.15;;;1.48;;
37645;SDS011;23489;49.600;6.138;2022-12-29T15:32:27;10.48;;;1.98;;
37645;SDS011;23489;49.600;6.138;2022-12-29T15:34:56;5.50;;;2.30;;
37645;SDS011;23489;49.600;6.138;2022-12-29T15:37:27;5.45;;;1.42;;
37645;SDS011;23489;49.600;6.138;2022-12-29T15:39:57;8.10;;;1.90;;
37645;SDS011;23489;49.600;6.138;2022-12-29T15:45:44;6.65;;;1.98;;
37645;SDS011;23489;49.600;6.138;2022-12-29T15:48:17;9.38;;;2.13;;
37645;SDS011;23489;49.600;6.138;2022-12-29T15:50:45;7.35;;;1.95;;
37645;SDS011;23489;49.600;6.138;2022-12-29T15:53:12;9.10;;;2.35;;
37645;SDS011;23489;49.600;6.138;2022-12-29T15:55:49;7.30;;;2.10;;
37645;SDS011;23489;49.600;6.138;2022-12-29T15:58:26;10.20;;;1.88;;
37645;SDS011;23489;49.600;6.138;2022-12-29T16:01:02;6.28;;;2.53;;
37645;SDS011;23489;49.600;6.138;2022-12-29T16:03:29;10.38;;;2.20;;
37645;SDS011;23489;49.600;6.138;2022-12-29T16:06:08;8.10;;;2.65;;
37645;SDS011;23489;49.600;6.138;2022-12-29T16:08:38;8.60;;;2.30;;
37645;SDS011;23489;49.600;6.138;2022-12-29T16:11:07;7.82;;;1.90;;
37645;SDS011;23489;49.600;6.138;2022-12-29T16:13:48;6.47;;;2.28;;
37645;SDS011;23489;49.600;6.138;2022-12-29T16:19:13;8.77;;;1.83;;
37645;SDS011;23489;49.600;6.138;2022-12-29T16:21:52;8.18;;;2.28;;
37645;SDS011;23489;49.600;6.138;2022-12-29T16:24:18;6.53;;;2.45;;
37645;SDS011;23489;49.600;6.138;2022-12-29T16:26:49;7.40;;;1.90;;
37645;SDS011;23489;49.600;6.138;2022-12-29T16:29:27;10.00;;;2.45;;
37645;SDS011;23489;49.600;6.138;2022-12-29T16:31:55;10.75;;;2.67;;
37645;SDS011;23489;49.600;6.138;2022-12-29T16:34:28;11.88;;;3.05;;
37645;SDS011;23489;49.600;6.138;2022-12-29T16:37:01;12.00;;;3.63;;
37645;SDS011;23489;49.600;6.138;2022-12-29T16:39:38;8.90;;;2.63;;
37645;SDS011;23489;49.600;6.138;2022-12-29T16:47:45;10.55;;;2.58;;
37645;SDS011;23489;49.600;6.138;2022-12-29T16:50:29;9.15;;;2.08;;
37645;SDS011;23489;49.600;6.138;2022-12-29T16:52:56;10.63;;;2.42;;
37645;SDS011;23489;49.600;6.138;2022-12-29T16:55:22;13.32;;;2.20;;
37645;SDS011;23489;49.600;6.138;2022-12-29T16:57:48;14.32;;;3.70;;
37645;SDS011;23489;49.600;6.138;2022-12-29T17:00:23;6.60;;;1.90;;
37645;SDS011;23489;49.600;6.138;2022-12-29T17:02:51;8.85;;;3.05;;
37645;SDS011;23489;49.600;6.138;2022-12-29T17:05:20;10.57;;;2.53;;
37645;SDS011;23489;49.600;6.138;2022-12-29T17:07:46;10.25;;;2.60;;
37645;SDS011;23489;49.600;6.138;2022-12-29T17:10:13;14.05;;;2.83;;
37645;SDS011;23489;49.600;6.138;2022-12-29T17:12:40;10.45;;;2.08;;
37645;SDS011;23489;49.600;6.138;2022-12-29T17:15:15;12.32;;;2.10;;
37645;SDS011;23489;49.600;6.138;2022-12-29T17:17:49;8.57;;;2.13;;
37645;SDS011;23489;49.600;6.138;2022-12-29T17:22:55;11.45;;;2.60;;
37645;SDS011;23489;49.600;6.138;2022-12-29T17:25:32;8.43;;;2.13;;
37645;SDS011;23489;49.600;6.138;2022-12-29T17:28:01;8.55;;;2.38;;
37645;SDS011;23489;49.600;6.138;2022-12-29T17:30:32;8.07;;;2.25;;
37645;SDS011;23489;49.600;6.138;2022-12-29T17:33:01;7.20;;;1.98;;
37645;SDS011;23489;49.600;6.138;2022-12-29T17:35:33;9.75;;;2.78;;
37645;SDS011;23489;49.600;6.138;2022-12-29T17:37:59;10.18;;;2.72;;
37645;SDS011;23489;49.600;6.138;2022-12-29T17:40:28;11.55;;;2.67;;
37645;SDS011;23489;49.600;6.138;2022-12-29T17:42:57;11.30;;;2.90;;
37645;SDS011;23489;49.600;6.138;2022-12-29T17:45:24;8.30;;;2.33;;
37645;SDS011;23489;49.600;6.138;2022-12-29T17:47:53;7.65;;;2.20;;
37645;SDS011;23489;49.600;6.138;2022-12-29T17:50:20;9.50;;;2.22;;
37645;SDS011;23489;49.600;6.138;2022-12-29T17:52:55;8.73;;;2.58;;
37645;SDS011;23489;49.600;6.138;2022-12-29T17:55:27;8.88;;;2.88;;